Time;durP1;ratioP1;P1;durP2;ratioP2;P2;SDS_P1;SDS_P2;PMS_P1;PMS_P2;Temp;Humidity;BMP_temperature;BMP_pressure;BME280_temperature;BME280_humidity;BME280_pressure;Samples;Min_cycle;Max_cycle;Signal;HPM_P1;HPM_P2
2022/11/24 00:00:36;;;;;;;;;;;;;;;11.43;58.15;98469.91;4473573;32;33165;-63
2022/11/24 00:03:04;;;;;;;;;;;;;;;11.24;58.64;98470.03;4466968;32;33980;-63
2022/11/24 00:05:37;;;;;;;;;;;;;;;11.30;58.46;98466.72;4470501;32;35437;-63
2022/11/24 00:08:04;;;;;;;;;;;;;;;10.97;59.65;98463.66;4472344;32;34204;-63
2022/11/24 00:10:32;;;;;;;;;;;;;;;11.02;59.13;98474.78;4476763;32;33271;-64
2022/11/24 00:12:59;;;;;;;;;;;;;;;11.26;58.78;98471.53;4470876;32;34407;-63
2022/11/24 00:15:26;;;;;;;;;;;;;;;11.39;58.19;98473.84;4469036;32;34120;-62
2022/11/24 00:17:54;;;;;;;;;;;;;;;11.10;59.09;98471.34;4472732;32;34447;-64
2022/11/24 00:20:21;;;;;;;;;;;;;;;11.01;59.97;98474.91;4480528;32;33556;-64
2022/11/24 00:22:48;;;;;;;;;;;;;;;11.21;59.54;98479.19;4476297;32;34085;-63
2022/11/24 00:25:16;;;;;;;;;;;;;;;11.24;59.11;98481.56;4469410;32;34515;-64
2022/11/24 00:27:43;;;;;;;;;;;;;;;11.06;59.81;98483.34;4478846;32;34095;-64
2022/11/24 00:30:11;;;;;;;;;;;;;;;10.70;61.27;98480.56;4468333;32;34833;-63
2022/11/24 00:32:38;;;;;;;;;;;;;;;10.53;60.78;98492.84;4473755;32;33770;-65
2022/11/24 00:35:06;;;;;;;;;;;;;;;10.42;61.86;98493.84;4467410;32;34471;-65
2022/11/24 00:37:34;;;;;;;;;;;;;;;10.62;61.55;98491.13;4471218;32;33883;-63
2022/11/24 00:40:01;;;;;;;;;;;;;;;10.80;60.97;98501.94;4470658;32;33122;-63
2022/11/24 00:42:28;;;;;;;;;;;;;;;10.60;61.18;98498.47;4475905;32;34249;-62
2022/11/24 00:44:56;;;;;;;;;;;;;;;10.59;61.14;98494.09;4476948;32;34813;-62
2022/11/24 00:47:23;;;;;;;;;;;;;;;10.78;60.59;98488.66;4483073;32;34924;-63
2022/11/24 00:49:50;;;;;;;;;;;;;;;10.69;60.82;98495.75;4474822;32;33603;-64
2022/11/24 00:52:18;;;;;;;;;;;;;;;10.63;60.97;98501.69;4479220;32;33872;-63
2022/11/24 00:54:45;;;;;;;;;;;;;;;10.75;60.75;98506.84;4479134;32;34298;-62
2022/11/24 00:57:12;;;;;;;;;;;;;;;10.87;60.49;98509.22;4468112;32;35203;-63
2022/11/24 00:59:40;;;;;;;;;;;;;;;10.85;59.68;98507.66;4469893;32;33243;-63
2022/11/24 01:02:07;;;;;;;;;;;;;;;10.72;60.56;98508.84;4483560;32;33534;-64
2022/11/24 01:04:34;;;;;;;;;;;;;;;10.72;59.99;98513.34;4471227;32;34827;-63
2022/11/24 01:07:02;;;;;;;;;;;;;;;11.01;59.05;98517.75;4470137;32;35671;-64
2022/11/24 01:09:30;;;;;;;;;;;;;;;10.73;60.12;98515.06;4469295;32;34363;-65
2022/11/24 01:12:00;;;;;;;;;;;;;;;10.75;59.97;98513.06;4474108;32;34254;-63
2022/11/24 01:14:27;;;;;;;;;;;;;;;10.59;61.00;98523.53;4468204;32;33638;-64
2022/11/24 01:16:55;;;;;;;;;;;;;;;10.39;61.25;98518.22;4471964;32;35240;-63
2022/11/24 01:19:22;;;;;;;;;;;;;;;10.62;61.19;98517.88;4469900;31;33180;-63
2022/11/24 01:21:50;;;;;;;;;;;;;;;10.71;60.26;98517.00;4473308;32;34269;-64
2022/11/24 01:24:17;;;;;;;;;;;;;;;10.70;60.67;98515.34;4443424;32;835069;-63
2022/11/24 01:26:44;;;;;;;;;;;;;;;10.85;59.77;98513.88;4467851;32;34181;-64
2022/11/24 01:29:12;;;;;;;;;;;;;;;10.59;60.46;98513.66;4468981;32;34745;-64
2022/11/24 01:31:39;;;;;;;;;;;;;;;10.99;59.28;98515.22;4466390;32;34049;-63
2022/11/24 01:34:06;;;;;;;;;;;;;;;11.01;59.10;98515.06;4477920;32;35424;-63
2022/11/24 01:36:34;;;;;;;;;;;;;;;10.60;61.35;98527.91;4479700;32;34213;-64
2022/11/24 01:39:01;;;;;;;;;;;;;;;10.82;59.86;98519.53;4471906;32;34130;-63
2022/11/24 01:41:28;;;;;;;;;;;;;;;10.60;60.86;98526.06;4477758;32;35978;-65
2022/11/24 01:43:56;;;;;;;;;;;;;;;10.98;59.46;98518.03;4468538;32;34301;-63
2022/11/24 01:46:30;;;;;;;;;;;;;;;10.70;60.58;98534.06;4476584;31;33833;-64
2022/11/24 01:49:00;;;;;;;;;;;;;;;10.84;59.90;98527.41;4475692;32;33441;-64
2022/11/24 01:51:28;;;;;;;;;;;;;;;10.50;61.07;98522.56;4472045;32;33050;-64
2022/11/24 01:54:22;;;;;;;;;;;;;;;10.63;60.85;98525.78;4468588;32;35343;-65
2022/11/24 01:56:51;;;;;;;;;;;;;;;10.70;60.72;98536.75;4464955;32;34011;-63
2022/11/24 01:59:19;;;;;;;;;;;;;;;10.70;60.49;98528.72;4463224;32;33712;-64
2022/11/24 02:01:46;;;;;;;;;;;;;;;10.47;60.77;98531.72;4472959;32;33992;-64
2022/11/24 02:04:14;;;;;;;;;;;;;;;10.22;61.94;98533.12;4461768;32;34443;-65
2022/11/24 02:06:42;;;;;;;;;;;;;;;10.61;60.66;98532.25;4468045;32;34520;-65
2022/11/24 02:09:15;;;;;;;;;;;;;;;10.76;60.12;98536.16;4468562;32;33027;-64
2022/11/24 02:11:43;;;;;;;;;;;;;;;10.62;60.50;98533.94;4467058;32;33192;-64
2022/11/24 02:14:10;;;;;;;;;;;;;;;9.96;63.23;98535.53;4476520;32;32817;-63
2022/11/24 02:16:37;;;;;;;;;;;;;;;10.16;62.51;98536.38;4473377;32;35751;-64
2022/11/24 02:19:07;;;;;;;;;;;;;;;9.88;63.39;98535.38;4455104;32;34484;-63
2022/11/24 02:21:34;;;;;;;;;;;;;;;10.19;62.19;98533.41;4458126;32;33869;-66
2022/11/24 02:24:04;;;;;;;;;;;;;;;9.84;63.29;98533.97;4474104;32;33197;-64
2022/11/24 02:26:37;;;;;;;;;;;;;;;10.17;61.41;98540.72;4452695;32;35157;-64
2022/11/24 02:29:05;;;;;;;;;;;;;;;10.22;61.52;98546.50;4456415;32;34392;-64
2022/11/24 02:31:32;;;;;;;;;;;;;;;10.28;62.15;98531.75;4472573;32;34140;-64
2022/11/24 02:34:00;;;;;;;;;;;;;;;10.12;62.93;98542.16;4468967;32;34187;-66
2022/11/24 02:36:27;;;;;;;;;;;;;;;9.48;64.56;98544.31;4475789;32;34358;-64
2022/11/24 02:38:54;;;;;;;;;;;;;;;9.92;62.94;98552.84;4470291;32;33555;-65
2022/11/24 02:41:22;;;;;;;;;;;;;;;9.77;63.41;98551.56;4476556;32;35209;-64
2022/11/24 02:43:57;;;;;;;;;;;;;;;10.09;62.28;98548.62;4461364;32;33906;-64
2022/11/24 02:46:25;;;;;;;;;;;;;;;9.67;64.21;98551.53;4470062;32;35397;-63
2022/11/24 02:48:52;;;;;;;;;;;;;;;9.48;64.30;98552.34;4472752;32;33222;-62
2022/11/24 02:51:19;;;;;;;;;;;;;;;9.14;65.54;98551.78;4475222;32;33489;-62
2022/11/24 02:53:47;;;;;;;;;;;;;;;9.64;64.27;98546.47;4477165;32;35587;-61
2022/11/24 02:56:14;;;;;;;;;;;;;;;9.90;63.05;98549.44;4468697;32;33698;-62
2022/11/24 02:58:41;;;;;;;;;;;;;;;9.64;63.67;98550.97;4467428;32;32938;-62
2022/11/24 03:01:09;;;;;;;;;;;;;;;10.09;62.05;98548.62;4470927;32;32822;-62
2022/11/24 03:03:36;;;;;;;;;;;;;;;9.89;62.77;98553.13;4471674;32;33938;-63
2022/11/24 03:06:04;;;;;;;;;;;;;;;10.11;61.77;98546.66;4474195;32;34148;-63
2022/11/24 03:08:31;;;;;;;;;;;;;;;10.38;60.44;98553.97;4472766;32;34227;-63
2022/11/24 03:10:59;;;;;;;;;;;;;;;10.23;60.70;98542.00;4473118;32;34537;-62
2022/11/24 03:13:27;;;;;;;;;;;;;;;9.41;63.18;98553.03;4476045;32;33892;-62
2022/11/24 03:15:54;;;;;;;;;;;;;;;9.88;61.44;98564.78;4467003;32;35576;-63
2022/11/24 03:18:22;;;;;;;;;;;;;;;9.56;62.67;98565.84;4472473;32;33231;-62
2022/11/24 03:20:49;;;;;;;;;;;;;;;9.55;62.96;98568.66;4468564;32;34072;-62
2022/11/24 03:23:17;;;;;;;;;;;;;;;9.76;62.15;98571.25;4475023;32;34292;-62
2022/11/24 03:25:44;;;;;;;;;;;;;;;9.80;62.24;98570.81;4466384;32;34175;-63
2022/11/24 03:28:11;;;;;;;;;;;;;;;10.19;60.35;98572.69;4467571;32;34492;-65
2022/11/24 03:30:39;;;;;;;;;;;;;;;9.97;61.01;98558.59;4475459;32;34657;-64
2022/11/24 03:33:07;;;;;;;;;;;;;;;9.55;62.16;98557.97;4472801;32;32150;-63
2022/11/24 03:35:34;;;;;;;;;;;;;;;9.74;61.85;98566.03;4473020;32;33663;-63
2022/11/24 03:38:02;;;;;;;;;;;;;;;10.09;60.58;98566.50;4469809;32;32478;-63
2022/11/24 03:40:29;;;;;;;;;;;;;;;10.10;60.70;98562.81;4464648;32;36133;-62
2022/11/24 03:42:56;;;;;;;;;;;;;;;10.15;60.36;98565.94;4466843;32;32421;-63
2022/11/24 03:45:24;;;;;;;;;;;;;;;9.83;61.85;98567.03;4455124;32;33812;-62
2022/11/24 03:48:11;;;;;;;;;;;;;;;10.12;60.64;98567.06;4464768;32;32135;-62
2022/11/24 03:50:38;;;;;;;;;;;;;;;9.94;61.29;98568.72;4475685;32;33761;-63
2022/11/24 03:53:06;;;;;;;;;;;;;;;10.16;60.23;98564.94;4472244;32;33060;-62
2022/11/24 03:55:33;;;;;;;;;;;;;;;9.39;63.48;98576.34;4464492;32;35277;-64
2022/11/24 03:58:00;;;;;;;;;;;;;;;9.42;62.77;98571.56;4465205;32;33042;-63
2022/11/24 04:00:28;;;;;;;;;;;;;;;9.48;62.09;98575.53;4473269;32;33855;-64
2022/11/24 04:02:55;;;;;;;;;;;;;;;9.25;62.98;98578.41;4466040;32;32485;-64
2022/11/24 04:05:24;;;;;;;;;;;;;;;9.44;62.15;98580.31;4467217;32;32878;-64
2022/11/24 04:07:53;;;;;;;;;;;;;;;8.78;62.52;98580.69;4465393;32;33069;-62
2022/11/24 04:10:21;;;;;;;;;;;;;;;8.65;63.62;98573.91;4464658;32;34530;-62
2022/11/24 04:12:49;;;;;;;;;;;;;;;8.64;63.67;98583.72;4465491;32;34358;-64
2022/11/24 04:15:17;;;;;;;;;;;;;;;8.81;63.27;98583.09;4465283;32;34150;-63
2022/11/24 04:17:45;;;;;;;;;;;;;;;8.92;62.62;98586.66;4472561;32;31839;-62
2022/11/24 04:20:12;;;;;;;;;;;;;;;8.34;63.99;98590.63;4472665;32;32889;-63
2022/11/24 04:22:40;;;;;;;;;;;;;;;8.32;64.39;98599.75;4473092;32;35944;-62
2022/11/24 04:25:08;;;;;;;;;;;;;;;8.54;63.71;98598.78;4474193;32;33945;-64
2022/11/24 04:27:35;;;;;;;;;;;;;;;8.66;62.89;98600.41;4468393;32;33084;-62
2022/11/24 04:30:03;;;;;;;;;;;;;;;8.89;62.44;98598.44;4471566;32;33858;-63
2022/11/24 04:32:31;;;;;;;;;;;;;;;8.51;63.96;98607.06;4465899;32;33095;-62
2022/11/24 04:34:58;;;;;;;;;;;;;;;8.70;61.63;98609.00;4467020;32;35349;-63
2022/11/24 04:37:25;;;;;;;;;;;;;;;8.84;61.87;98598.84;4465499;32;31942;-63
2022/11/24 04:39:54;;;;;;;;;;;;;;;8.50;62.59;98608.88;4469520;32;34043;-63
2022/11/24 04:42:21;;;;;;;;;;;;;;;8.31;62.73;98609.53;4465886;32;34311;-61
2022/11/24 04:44:48;;;;;;;;;;;;;;;8.09;64.54;98617.62;4473265;32;34759;-62
2022/11/24 04:47:17;;;;;;;;;;;;;;;8.45;63.63;98624.44;4465676;32;32879;-63
2022/11/24 04:49:50;;;;;;;;;;;;;;;7.49;66.08;98635.81;4462935;32;32294;-65
2022/11/24 04:52:18;;;;;;;;;;;;;;;8.33;63.75;98644.09;4472512;32;34457;-64
2022/11/24 04:54:46;;;;;;;;;;;;;;;8.26;63.87;98650.91;4465722;32;33787;-62
2022/11/24 04:57:17;;;;;;;;;;;;;;;7.97;64.36;98642.63;4474076;32;30635;-63
2022/11/24 04:59:45;;;;;;;;;;;;;;;8.24;63.47;98653.69;4465992;32;34167;-65
2022/11/24 05:02:12;;;;;;;;;;;;;;;8.60;62.97;98655.16;4466528;32;35492;-62
2022/11/24 05:04:39;;;;;;;;;;;;;;;8.09;64.29;98657.59;4477146;32;34410;-65
2022/11/24 05:07:09;;;;;;;;;;;;;;;7.54;65.18;98664.72;4477392;32;34073;-63
2022/11/24 05:12:30;;;;;;;;;;;;;;;8.50;61.96;98672.03;4466985;32;35527;-66
2022/11/24 05:14:58;;;;;;;;;;;;;;;8.56;62.56;98669.69;4466077;32;34019;-66
2022/11/24 05:17:32;;;;;;;;;;;;;;;8.67;62.41;98663.50;4455422;32;33522;-68
2022/11/24 05:19:59;;;;;;;;;;;;;;;8.85;61.57;98675.25;4468535;32;32720;-67
2022/11/24 05:22:27;;;;;;;;;;;;;;;8.52;62.35;98683.44;4476570;32;34210;-68
2022/11/24 05:24:54;;;;;;;;;;;;;;;8.30;63.96;98682.50;4470872;32;32779;-67
2022/11/24 05:27:22;;;;;;;;;;;;;;;8.89;61.85;98686.50;4468119;32;33614;-67
2022/11/24 05:29:49;;;;;;;;;;;;;;;8.66;63.08;98682.28;4469109;32;34883;-67
2022/11/24 05:32:16;;;;;;;;;;;;;;;9.28;60.04;98679.59;4470317;32;32744;-68
2022/11/24 05:34:44;;;;;;;;;;;;;;;9.56;58.90;98682.53;4474030;32;34474;-68
2022/11/24 05:37:11;;;;;;;;;;;;;;;9.90;57.56;98685.75;4478777;32;33054;-67
2022/11/24 05:39:38;;;;;;;;;;;;;;;9.86;58.09;98687.03;4469374;32;34771;-67
2022/11/24 05:44:52;;;;;;;;;;;;;;;9.60;59.11;98691.13;4472533;32;35270;-68
2022/11/24 05:47:19;;;;;;;;;;;;;;;9.41;58.97;98692.75;4478746;32;33911;-65
2022/11/24 05:49:47;;;;;;;;;;;;;;;10.03;57.63;98697.03;4480731;32;32994;-68
2022/11/24 05:52:14;;;;;;;;;;;;;;;10.09;56.27;98701.00;4470756;32;34278;-66
2022/11/24 05:54:42;;;;;;;;;;;;;;;9.88;56.22;98693.06;4472811;32;34059;-66
2022/11/24 05:57:09;;;;;;;;;;;;;;;9.74;57.94;98704.13;4475287;32;32093;-68
2022/11/24 05:59:36;;;;;;;;;;;;;;;9.76;58.10;98703.03;4470886;32;32776;-67
2022/11/24 06:02:04;;;;;;;;;;;;;;;8.73;60.23;98705.66;4466099;32;34017;-69
2022/11/24 06:04:31;;;;;;;;;;;;;;;8.38;62.59;98709.44;4466080;32;33894;-68
2022/11/24 06:06:59;;;;;;;;;;;;;;;8.71;60.81;98715.59;4465758;32;34653;-68
2022/11/24 06:09:26;;;;;;;;;;;;;;;9.23;59.51;98721.88;4466790;32;33536;-68
2022/11/24 06:11:54;;;;;;;;;;;;;;;9.52;57.92;98730.03;4471140;32;34154;-66
2022/11/24 06:14:21;;;;;;;;;;;;;;;9.28;58.53;98734.84;4472921;32;34229;-68
2022/11/24 06:16:48;;;;;;;;;;;;;;;8.62;60.48;98737.69;4467460;32;31957;-67
2022/11/24 06:19:16;;;;;;;;;;;;;;;8.44;63.03;98744.53;4474556;32;34138;-66
2022/11/24 06:21:43;;;;;;;;;;;;;;;7.98;62.84;98738.41;4469805;32;34048;-66
2022/11/24 06:24:10;;;;;;;;;;;;;;;8.12;62.29;98742.63;4466811;32;35172;-69
2022/11/24 06:26:38;;;;;;;;;;;;;;;8.69;60.34;98752.22;4478023;32;32954;-66
2022/11/24 06:29:05;;;;;;;;;;;;;;;8.31;60.80;98756.16;4470414;32;34123;-68
2022/11/24 06:31:32;;;;;;;;;;;;;;;8.07;63.22;98768.81;4467162;32;33929;-68
2022/11/24 06:34:00;;;;;;;;;;;;;;;8.92;59.94;98758.31;4474546;32;34576;-66
2022/11/24 06:36:27;;;;;;;;;;;;;;;9.45;58.62;98770.78;4476505;32;32297;-68
2022/11/24 06:38:54;;;;;;;;;;;;;;;9.76;57.33;98772.50;4472321;32;32407;-67
2022/11/24 06:41:22;;;;;;;;;;;;;;;9.76;57.31;98777.84;4473840;32;35322;-68
2022/11/24 06:43:49;;;;;;;;;;;;;;;9.81;57.15;98780.09;4475533;32;34221;-66
2022/11/24 06:46:16;;;;;;;;;;;;;;;9.41;58.47;98780.03;4475257;32;33334;-66
2022/11/24 06:48:44;;;;;;;;;;;;;;;9.30;59.15;98773.75;4467053;32;34187;-66
2022/11/24 06:51:11;;;;;;;;;;;;;;;9.67;57.98;98772.44;4474303;32;35145;-65
2022/11/24 06:53:39;;;;;;;;;;;;;;;8.89;59.48;98773.72;4469057;32;34183;-65
2022/11/24 06:56:08;;;;;;;;;;;;;;;9.82;56.29;98773.78;4474166;32;33917;-67
2022/11/24 06:58:42;;;;;;;;;;;;;;;9.70;56.63;98778.38;4474182;32;32728;-65
2022/11/24 07:01:13;;;;;;;;;;;;;;;9.54;57.86;98786.88;4467043;32;33747;-66
2022/11/24 07:03:40;;;;;;;;;;;;;;;9.15;58.24;98783.09;4472277;32;34203;-67
2022/11/24 07:06:08;;;;;;;;;;;;;;;9.59;57.51;98782.94;4467028;32;33933;-67
2022/11/24 07:08:35;;;;;;;;;;;;;;;9.18;59.12;98792.62;4465943;32;33831;-65
2022/11/24 07:11:06;;;;;;;;;;;;;;;9.19;59.09;98794.34;4466837;32;33908;-66
2022/11/24 07:13:33;;;;;;;;;;;;;;;9.33;58.32;98797.53;4469119;32;33980;-65
2022/11/24 07:16:14;;;;;;;;;;;;;;;9.52;58.20;98807.50;4475054;32;33199;-67
2022/11/24 07:18:42;;;;;;;;;;;;;;;9.32;58.92;98811.87;4473115;32;34012;-66
2022/11/24 07:21:09;;;;;;;;;;;;;;;9.37;58.72;98811.47;4476662;32;32587;-67
2022/11/24 07:23:37;;;;;;;;;;;;;;;9.75;57.05;98813.53;4477116;32;34602;-68
2022/11/24 07:26:04;;;;;;;;;;;;;;;9.73;57.54;98817.34;4479342;32;34189;-68
2022/11/24 07:28:33;;;;;;;;;;;;;;;9.75;57.13;98824.22;4474728;32;32882;-67
2022/11/24 07:31:08;;;;;;;;;;;;;;;9.85;56.46;98821.63;4471511;32;34420;-68
2022/11/24 07:33:35;;;;;;;;;;;;;;;10.00;56.41;98822.13;4473785;32;34096;-69
2022/11/24 07:36:03;;;;;;;;;;;;;;;10.04;56.75;98826.22;4468060;32;32752;-69
2022/11/24 07:38:31;;;;;;;;;;;;;;;9.89;57.35;98825.75;4466381;32;34017;-69
2022/11/24 07:41:00;;;;;;;;;;;;;;;10.15;56.33;98823.47;4466677;32;33915;-69
2022/11/24 07:43:27;;;;;;;;;;;;;;;9.56;57.99;98829.47;4470313;32;33846;-70
2022/11/24 07:45:55;;;;;;;;;;;;;;;9.47;57.52;98830.22;4465468;32;33315;-67
2022/11/24 07:48:22;;;;;;;;;;;;;;;9.03;58.96;98837.50;4460914;32;35747;-67
2022/11/24 07:50:50;;;;;;;;;;;;;;;9.05;58.19;98831.06;4471706;31;34335;-67
2022/11/24 07:53:22;;;;;;;;;;;;;;;8.84;59.42;98840.84;4472492;32;32819;-67
2022/11/24 07:55:54;;;;;;;;;;;;;;;8.83;59.19;98841.81;4469302;32;33378;-66
2022/11/24 07:58:21;;;;;;;;;;;;;;;8.53;60.04;98835.31;4476849;32;34240;-67
2022/11/24 08:00:49;;;;;;;;;;;;;;;8.40;60.52;98842.59;4467942;32;35246;-68
2022/11/24 08:03:16;;;;;;;;;;;;;;;8.73;60.37;98838.19;4479350;32;33577;-66
2022/11/24 08:05:51;;;;;;;;;;;;;;;9.17;58.59;98841.69;4481773;32;34477;-66
2022/11/24 08:08:39;;;;;;;;;;;;;;;8.83;60.98;98841.81;4470871;32;35658;-69
2022/11/24 08:11:07;;;;;;;;;;;;;;;9.05;59.24;98847.09;4466456;32;35516;-64
2022/11/24 08:13:34;;;;;;;;;;;;;;;8.67;61.47;98842.22;4471718;32;34151;-66
2022/11/24 08:16:03;;;;;;;;;;;;;;;8.88;59.73;98846.75;4474640;32;33304;-68
2022/11/24 08:18:30;;;;;;;;;;;;;;;9.16;59.60;98843.50;4478808;32;34387;-65
2022/11/24 08:20:58;;;;;;;;;;;;;;;8.54;60.89;98844.16;4474134;32;35029;-66
2022/11/24 08:23:25;;;;;;;;;;;;;;;8.77;61.47;98853.00;4473761;32;33054;-67
2022/11/24 08:25:53;;;;;;;;;;;;;;;8.79;61.30;98864.38;4480604;32;33250;-66
2022/11/24 08:28:23;;;;;;;;;;;;;;;8.77;61.93;98855.66;4470945;32;33323;-66
2022/11/24 08:30:50;;;;;;;;;;;;;;;9.25;59.38;98860.59;4468874;32;35812;-68
2022/11/24 08:33:17;;;;;;;;;;;;;;;8.75;60.39;98858.44;4468241;32;34924;-68
2022/11/24 08:35:45;;;;;;;;;;;;;;;9.06;59.95;98866.59;4470225;32;32576;-69
2022/11/24 08:38:12;;;;;;;;;;;;;;;8.78;60.80;98865.34;4473986;32;34794;-68
2022/11/24 08:40:39;;;;;;;;;;;;;;;8.62;61.47;98865.75;4468370;32;35631;-66
2022/11/24 08:43:06;;;;;;;;;;;;;;;8.54;61.65;98869.03;4477049;32;33896;-67
2022/11/24 08:45:34;;;;;;;;;;;;;;;8.32;62.25;98877.84;4477558;32;32953;-67
2022/11/24 08:48:07;;;;;;;;;;;;;;;8.13;63.88;98875.78;4469760;32;34102;-66
2022/11/24 08:50:35;;;;;;;;;;;;;;;8.53;62.12;98872.66;4472817;32;34298;-67
2022/11/24 08:53:02;;;;;;;;;;;;;;;8.04;62.59;98867.66;4475214;32;33890;-65
2022/11/24 08:55:29;;;;;;;;;;;;;;;8.68;61.29;98867.06;4477150;32;31410;-66
2022/11/24 08:57:57;;;;;;;;;;;;;;;8.33;62.22;98876.03;4476339;32;34442;-66
2022/11/24 09:00:24;;;;;;;;;;;;;;;7.99;63.21;98886.66;4472031;32;34379;-65
2022/11/24 09:02:55;;;;;;;;;;;;;;;8.45;61.59;98882.25;4468021;32;32519;-66
2022/11/24 09:05:23;;;;;;;;;;;;;;;8.27;62.74;98882.69;4475932;32;33118;-66
2022/11/24 09:08:10;;;;;;;;;;;;;;;7.71;63.82;98893.31;4471488;32;33604;-67
2022/11/24 09:10:38;;;;;;;;;;;;;;;8.48;61.69;98890.84;4473681;32;34560;-66
2022/11/24 09:13:05;;;;;;;;;;;;;;;8.80;59.81;98887.44;4475363;32;34026;-69
2022/11/24 09:15:33;;;;;;;;;;;;;;;8.10;61.81;98902.69;4471231;32;33377;-67
2022/11/24 09:18:01;;;;;;;;;;;;;;;8.75;60.31;98886.94;4471672;32;34147;-69
2022/11/24 09:20:28;;;;;;;;;;;;;;;8.01;62.50;98905.22;4471433;32;35849;-71
2022/11/24 09:22:55;;;;;;;;;;;;;;;7.86;63.71;98899.25;4471125;32;35765;-67
2022/11/24 09:25:23;;;;;;;;;;;;;;;7.78;63.08;98905.19;4471188;32;33627;-68
2022/11/24 09:27:50;;;;;;;;;;;;;;;8.31;62.75;98912.63;4471262;32;34239;-68
2022/11/24 09:30:17;;;;;;;;;;;;;;;8.42;61.76;98910.00;4470245;32;32481;-68
2022/11/24 09:32:45;;;;;;;;;;;;;;;8.08;62.92;98914.44;4471426;32;34262;-69
2022/11/24 09:35:12;;;;;;;;;;;;;;;8.57;61.16;98905.25;4471290;32;34023;-67
2022/11/24 09:37:40;;;;;;;;;;;;;;;8.40;60.89;98917.28;4470293;32;32388;-66
2022/11/24 09:40:09;;;;;;;;;;;;;;;8.23;62.03;98912.41;4470182;32;33847;-68
2022/11/24 09:42:39;;;;;;;;;;;;;;;7.73;64.77;98915.31;4469850;32;35118;-71
2022/11/24 09:45:12;;;;;;;;;;;;;;;8.07;64.09;98910.91;4471464;32;32421;-69
2022/11/24 09:47:57;;;;;;;;;;;;;;;8.56;61.60;98914.25;4470398;32;32712;-68
2022/11/24 09:50:26;;;;;;;;;;;;;;;8.45;62.15;98911.59;4470114;32;34183;-68
2022/11/24 09:52:53;;;;;;;;;;;;;;;8.07;63.40;98910.91;4470150;32;35218;-65
2022/11/24 09:55:23;;;;;;;;;;;;;;;7.67;64.18;98914.00;4470972;32;33250;-66
2022/11/24 09:57:53;;;;;;;;;;;;;;;8.09;64.05;98911.66;4471299;32;34495;-65
2022/11/24 10:00:21;;;;;;;;;;;;;;;8.12;64.04;98922.09;4470841;32;34490;-68
2022/11/24 10:02:48;;;;;;;;;;;;;;;8.19;63.19;98917.13;4471341;32;35135;-65
2022/11/24 10:05:16;;;;;;;;;;;;;;;8.28;62.25;98915.53;4470106;32;34176;-65
2022/11/24 10:07:45;;;;;;;;;;;;;;;8.13;62.85;98917.59;4470049;32;33954;-67
2022/11/24 10:10:14;;;;;;;;;;;;;;;8.07;63.42;98921.56;4469974;32;35652;-66
2022/11/24 10:12:56;;;;;;;;;;;;;;;8.97;61.51;98926.06;4471565;32;33153;-66
2022/11/24 10:15:32;;;;;;;;;;;;;;;8.79;61.45;98920.41;4480932;32;33756;-65
2022/11/24 10:18:03;;;;;;;;;;;;;;;8.63;62.68;98926.97;4470071;32;34007;-69
2022/11/24 10:20:30;;;;;;;;;;;;;;;8.54;62.32;98918.84;4475269;32;34122;-66
2022/11/24 10:23:07;;;;;;;;;;;;;;;8.87;61.30;98925.97;4467458;32;35179;-68
2022/11/24 10:25:43;;;;;;;;;;;;;;;8.71;62.07;98923.69;4454060;32;31789;-67
2022/11/24 10:28:11;;;;;;;;;;;;;;;8.97;60.96;98924.25;4462186;32;34097;-65
2022/11/24 10:30:39;;;;;;;;;;;;;;;8.65;62.83;98918.84;4461064;32;34333;-65
2022/11/24 10:33:15;;;;;;;;;;;;;;;8.71;62.24;98922.84;4473099;32;34353;-65
2022/11/24 10:35:44;;;;;;;;;;;;;;;8.86;62.59;98930.47;4469786;32;31834;-65
2022/11/24 10:38:15;;;;;;;;;;;;;;;8.91;61.85;98929.25;4465920;32;34805;-65
2022/11/24 10:40:43;;;;;;;;;;;;;;;9.03;61.89;98921.09;4472728;32;35425;-67
2022/11/24 10:43:29;;;;;;;;;;;;;;;8.89;61.70;98931.19;4468159;32;34076;-65
2022/11/24 10:46:12;;;;;;;;;;;;;;;8.25;63.41;98939.75;4476043;32;34321;-66
2022/11/24 10:48:44;;;;;;;;;;;;;;;8.38;63.56;98937.91;4480721;32;34313;-68
2022/11/24 10:51:30;;;;;;;;;;;;;;;8.95;62.35;98938.69;4464580;32;35368;-65
2022/11/24 10:54:04;;;;;;;;;;;;;;;9.25;61.76;98949.56;4463710;32;33582;-65
2022/11/24 10:56:41;;;;;;;;;;;;;;;9.91;59.69;98945.88;4469524;32;33375;-65
2022/11/24 10:59:21;;;;;;;;;;;;;;;9.36;61.18;98937.97;4455422;32;32549;-66
2022/11/24 11:01:48;;;;;;;;;;;;;;;9.74;60.66;98942.81;4472680;32;35210;-65
2022/11/24 11:04:34;;;;;;;;;;;;;;;9.09;61.90;98933.09;4476189;32;34240;-65
2022/11/24 11:07:08;;;;;;;;;;;;;;;9.01;61.47;98947.03;4474284;32;33342;-66
2022/11/24 11:09:36;;;;;;;;;;;;;;;8.82;61.08;98971.69;4469412;32;34057;-65
2022/11/24 11:12:11;;;;;;;;;;;;;;;8.56;61.58;98957.75;4474990;32;34056;-64
2022/11/24 11:15:14;;;;;;;;;;;;;;;8.67;60.82;98959.59;4475572;32;34434;-67
2022/11/24 11:17:42;;;;;;;;;;;;;;;8.69;61.42;98959.47;4455533;32;34367;-65
2022/11/24 11:20:16;;;;;;;;;;;;;;;8.76;60.90;98963.31;4464299;32;34183;-65
2022/11/24 11:22:44;;;;;;;;;;;;;;;8.70;61.15;98955.81;4475929;32;35458;-64
2022/11/24 11:25:12;;;;;;;;;;;;;;;9.22;60.87;98959.63;4473050;32;34402;-65
2022/11/24 11:27:39;;;;;;;;;;;;;;;9.83;58.89;98961.72;4478462;32;33448;-65
2022/11/24 11:30:16;;;;;;;;;;;;;;;10.21;58.47;98966.50;4459083;32;35092;-65
2022/11/24 11:33:07;;;;;;;;;;;;;;;10.47;57.74;98965.13;4481708;32;35803;-67
2022/11/24 11:35:55;;;;;;;;;;;;;;;10.21;58.54;98963.81;4469299;32;35349;-64
2022/11/24 11:38:23;;;;;;;;;;;;;;;9.98;57.91;98963.94;4459677;32;33353;-65
2022/11/24 11:40:50;;;;;;;;;;;;;;;10.24;57.81;98967.06;4456493;32;34378;-66
2022/11/24 11:43:24;;;;;;;;;;;;;;;9.86;58.96;98975.69;4481442;32;32537;-65
2022/11/24 11:45:59;;;;;;;;;;;;;;;10.18;57.96;98969.44;4458935;32;32767;-65
2022/11/24 11:48:30;;;;;;;;;;;;;;;10.00;59.01;98967.31;4458391;32;34539;-65
2022/11/24 11:51:09;;;;;;;;;;;;;;;10.52;57.48;98972.72;4456047;32;34420;-65
2022/11/24 11:54:10;;;;;;;;;;;;;;;9.67;59.77;98976.38;4469126;32;34338;-65
2022/11/24 11:56:44;;;;;;;;;;;;;;;9.25;60.50;98976.25;4466489;32;33812;-65
2022/11/24 11:59:15;;;;;;;;;;;;;;;9.58;59.87;98974.44;4458868;32;34582;-67
2022/11/24 12:01:45;;;;;;;;;;;;;;;9.88;58.69;98978.22;4457216;32;34281;-65
2022/11/24 12:04:13;;;;;;;;;;;;;;;10.30;57.20;98968.38;4468746;31;33342;-65
2022/11/24 12:06:59;;;;;;;;;;;;;;;10.31;57.84;98980.81;4472476;32;35641;-67
2022/11/24 12:09:35;;;;;;;;;;;;;;;10.18;58.39;98980.97;4471089;32;33308;-66
2022/11/24 12:12:22;;;;;;;;;;;;;;;10.20;59.51;98978.16;4460343;32;34995;-69
2022/11/24 12:14:50;;;;;;;;;;;;;;;10.62;58.35;98978.13;4478441;31;34188;-65
2022/11/24 12:17:25;;;;;;;;;;;;;;;10.27;58.79;98979.34;4475419;32;34461;-68
2022/11/24 12:19:52;;;;;;;;;;;;;;;9.71;60.23;98976.94;4455284;32;31804;-67
2022/11/24 12:22:26;;;;;;;;;;;;;;;9.13;62.08;98981.75;4454771;32;32617;-68
2022/11/24 12:25:02;;;;;;;;;;;;;;;9.74;59.70;98987.37;4465566;32;32629;-67
2022/11/24 12:27:35;;;;;;;;;;;;;;;9.09;61.70;98987.31;4444262;32;32678;-67
2022/11/24 12:30:10;;;;;;;;;;;;;;;9.19;61.33;98984.75;4448852;32;34594;-66
2022/11/24 12:32:42;;;;;;;;;;;;;;;9.15;61.08;98987.78;4443743;32;33734;-67
2022/11/24 12:35:21;;;;;;;;;;;;;;;9.59;60.34;98989.50;4445258;32;34749;-66
2022/11/24 12:37:52;;;;;;;;;;;;;;;9.89;59.33;98980.75;4453606;32;34656;-67
2022/11/24 12:40:32;;;;;;;;;;;;;;;8.81;63.06;98988.69;4448178;32;33499;-67
2022/11/24 12:43:08;;;;;;;;;;;;;;;9.25;61.94;98983.41;4453115;32;34047;-68
2022/11/24 12:45:45;;;;;;;;;;;;;;;9.38;61.02;98980.59;4436360;32;32749;-66
2022/11/24 12:48:15;;;;;;;;;;;;;;;9.48;61.13;98990.41;4456317;32;33703;-67
2022/11/24 12:50:43;;;;;;;;;;;;;;;9.30;60.89;98991.88;4460084;32;33124;-66
2022/11/24 12:53:10;;;;;;;;;;;;;;;9.57;60.37;98996.81;4442210;32;34906;-67
2022/11/24 12:55:39;;;;;;;;;;;;;;;9.52;60.64;98990.97;4439617;32;32781;-67
2022/11/24 12:58:12;;;;;;;;;;;;;;;9.36;60.96;99004.75;4442436;32;33649;-67
2022/11/24 13:00:52;;;;;;;;;;;;;;;9.82;59.65;98998.25;4439515;32;33507;-66
2022/11/24 13:03:19;;;;;;;;;;;;;;;9.56;60.82;98987.06;4444115;32;33859;-67
2022/11/24 13:05:59;;;;;;;;;;;;;;;9.87;58.94;99000.56;4449421;32;33350;-67
2022/11/24 13:08:27;;;;;;;;;;;;;;;9.84;59.25;99001.69;4446763;32;34298;-66
2022/11/24 13:10:54;;;;;;;;;;;;;;;9.99;58.98;98995.03;4445335;32;33381;-66